Time;durP1;ratioP1;P1;durP2;ratioP2;P2;SDS_P1;SDS_P2;PMS_P1;PMS_P2;Temp;Humidity;BMP_temperature;BMP_pressure;BME280_temperature;BME280_humidity;BME280_pressure;Samples;Min_cycle;Max_cycle;Signal;HPM_P1;HPM_P2
2022/02/26 00:01:44;;;;;;;5.13;1.15;;;25.50;73.90;;;;;;5171353;22;20019;-68
2022/02/26 00:04:07;;;;;;;3.17;1.13;;;25.50;74.00;;;;;;5178463;22;20061;-68
2022/02/26 00:06:30;;;;;;;2.05;0.82;;;25.50;73.90;;;;;;5173205;22;20043;-68
2022/02/26 00:08:52;;;;;;;4.50;0.82;;;25.50;73.80;;;;;;5171317;22;20018;-68
2022/02/26 00:11:15;;;;;;;3.20;1.08;;;25.40;73.70;;;;;;5174492;22;20011;-67
2022/02/26 00:13:38;;;;;;;3.07;1.13;;;25.50;73.80;;;;;;5170206;22;20092;-68
2022/02/26 00:16:01;;;;;;;3.20;1.30;;;25.40;73.70;;;;;;5168641;22;20026;-67
2022/02/26 00:18:23;;;;;;;5.65;1.20;;;25.40;73.70;;;;;;5172431;22;20351;-67
2022/02/26 00:20:45;;;;;;;4.75;1.67;;;25.40;73.70;;;;;;5172338;22;20417;-68
2022/02/26 00:23:08;;;;;;;4.35;1.63;;;25.40;73.80;;;;;;5169811;22;20079;-68
2022/02/26 00:25:31;;;;;;;1.48;0.88;;;25.40;73.80;;;;;;5142543;22;20112;-68
2022/02/26 00:27:53;;;;;;;1.48;1.02;;;25.40;73.80;;;;;;5176828;22;20531;-69
2022/02/26 00:30:16;;;;;;;3.53;1.20;;;25.40;74.00;;;;;;5171944;22;20778;-69
2022/02/26 00:32:38;;;;;;;3.20;1.05;;;25.40;74.10;;;;;;5170286;22;20042;-67
2022/02/26 00:35:01;;;;;;;3.58;1.15;;;25.40;74.10;;;;;;5180083;22;20336;-67
2022/02/26 00:37:23;;;;;;;4.05;1.30;;;25.30;74.20;;;;;;5169006;22;20030;-69
2022/02/26 00:39:46;;;;;;;5.25;1.63;;;25.40;74.30;;;;;;5173798;22;20351;-69
2022/02/26 00:42:09;;;;;;;4.45;1.42;;;25.40;74.20;;;;;;5179386;22;20023;-68
2022/02/26 00:44:32;;;;;;;4.13;1.35;;;25.30;74.20;;;;;;5174148;22;20015;-67
2022/02/26 00:46:54;;;;;;;2.95;1.10;;;25.30;74.20;;;;;;5175052;22;20046;-67
2022/02/26 00:51:58;;;;;;;4.25;1.73;;;25.30;74.30;;;;;;5175373;22;20019;-68
2022/02/26 00:54:20;;;;;;;4.20;1.52;;;25.20;74.30;;;;;;5178320;22;20015;-69
2022/02/26 00:56:43;;;;;;;3.70;1.50;;;25.30;74.50;;;;;;5175236;22;20532;-69
2022/02/26 00:59:05;;;;;;;2.25;0.90;;;25.30;74.40;;;;;;5178486;22;20011;-68
2022/02/26 01:01:28;;;;;;;2.65;1.20;;;25.30;74.40;;;;;;5171689;22;20049;-69
2022/02/26 01:03:50;;;;;;;1.88;1.00;;;25.20;74.40;;;;;;5176877;22;20058;-69
2022/02/26 01:06:13;;;;;;;2.08;1.00;;;25.20;74.40;;;;;;5180273;22;20212;-69
2022/02/26 01:08:35;;;;;;;2.15;1.10;;;25.20;74.40;;;;;;5185294;22;20365;-68
2022/02/26 01:10:58;;;;;;;2.53;1.00;;;25.20;74.50;;;;;;5181153;22;20380;-69
2022/02/26 01:13:20;;;;;;;2.90;1.20;;;25.20;74.70;;;;;;5178981;22;20050;-69
2022/02/26 01:15:43;;;;;;;3.22;1.30;;;25.20;74.70;;;;;;5186019;22;20015;-69
2022/02/26 01:18:05;;;;;;;2.83;1.20;;;25.20;74.90;;;;;;5179816;22;20023;-69
2022/02/26 01:20:28;;;;;;;3.60;1.27;;;25.20;75.00;;;;;;5181650;22;20011;-69
2022/02/26 01:22:50;;;;;;;2.72;0.80;;;25.20;75.00;;;;;;5187255;22;20848;-69
2022/02/26 01:25:13;;;;;;;2.10;1.10;;;25.20;75.00;;;;;;5184286;22;20019;-68
2022/02/26 01:27:39;;;;;;;2.95;0.90;;;25.20;75.00;;;;;;5178847;22;20025;-66
2022/02/26 01:30:01;;;;;;;3.67;1.13;;;25.20;75.10;;;;;;5187076;22;20420;-69
2022/02/26 01:32:24;;;;;;;1.92;1.23;;;25.20;75.00;;;;;;5180888;22;20023;-69
2022/02/26 01:34:46;;;;;;;2.45;1.00;;;25.20;75.10;;;;;;5177017;22;20025;-69
2022/02/26 01:37:09;;;;;;;2.78;1.27;;;25.20;75.10;;;;;;5184385;22;20398;-67
2022/02/26 01:39:31;;;;;;;5.55;1.00;;;25.10;75.20;;;;;;5181841;22;20049;-69
2022/02/26 01:41:57;;;;;;;2.80;1.25;;;25.10;75.20;;;;;;5181071;22;20027;-68
2022/02/26 01:44:19;;;;;;;3.10;1.00;;;25.10;75.30;;;;;;5190260;22;20037;-70
2022/02/26 01:46:42;;;;;;;5.47;1.15;;;25.10;75.30;;;;;;5184509;22;20320;-69
2022/02/26 01:49:04;;;;;;;2.47;1.20;;;25.10;75.40;;;;;;5183435;22;20011;-69
2022/02/26 01:51:27;;;;;;;2.65;1.02;;;25.20;75.50;;;;;;5186923;22;20944;-69
2022/02/26 01:53:50;;;;;;;3.75;1.40;;;25.10;75.30;;;;;;5185880;22;20030;-70
2022/02/26 01:56:12;;;;;;;3.13;0.98;;;;;;;;;;5183128;22;20025;-69
2022/02/26 01:58:35;;;;;;;2.85;1.40;;;;;;;;;;5186969;22;20250;-69
2022/02/26 02:00:57;;;;;;;4.13;1.42;;;;;;;;;;5188994;22;20014;-70
2022/02/26 02:03:19;;;;;;;3.88;0.98;;;;;;;;;;5182596;22;20050;-69
2022/02/26 02:05:43;;;;;;;4.53;1.15;;;;;;;;;;5155226;22;20792;-68
2022/02/26 02:08:05;;;;;;;3.05;1.10;;;;;;;;;;5189589;22;20088;-69
2022/02/26 02:10:28;;;;;;;3.75;1.23;;;;;;;;;;5184167;22;20529;-69
2022/02/26 02:12:51;;;;;;;4.28;1.73;;;25.10;75.50;;;;;;5184004;22;20532;-68
2022/02/26 02:15:13;;;;;;;5.30;1.80;;;25.10;75.40;;;;;;5187249;22;20082;-70
2022/02/26 02:17:36;;;;;;;5.05;1.80;;;25.10;75.90;;;;;;5182306;22;20038;-70
2022/02/26 02:19:58;;;;;;;5.53;1.90;;;25.10;75.90;;;;;;5182240;22;20876;-71
2022/02/26 02:22:22;;;;;;;6.03;2.08;;;25.10;76.10;;;;;;5187743;22;20054;-70
2022/02/26 02:24:45;;;;;;;5.20;2.13;;;25.10;76.40;;;;;;5179545;22;20730;-70
2022/02/26 02:27:07;;;;;;;6.37;2.40;;;25.10;76.50;;;;;;5183953;22;20025;-68
2022/02/26 02:29:30;;;;;;;6.28;2.33;;;25.10;76.50;;;;;;5188584;22;20070;-69
2022/02/26 02:31:53;;;;;;;7.43;2.10;;;25.10;76.50;;;;;;5186287;22;20068;-68
2022/02/26 02:34:15;;;;;;;5.30;1.95;;;25.10;76.50;;;;;;5184332;22;20436;-67
2022/02/26 02:36:44;;;;;;;5.40;2.30;;;25.10;76.70;;;;;;5189442;22;20832;-69
2022/02/26 02:39:07;;;;;;;6.70;1.98;;;25.10;76.60;;;;;;5182673;22;20023;-68
2022/02/26 02:41:29;;;;;;;5.32;1.92;;;25.10;76.50;;;;;;5154016;22;20036;-68
2022/02/26 02:43:52;;;;;;;5.68;2.13;;;25.10;76.50;;;;;;5187519;22;20839;-70
2022/02/26 02:46:14;;;;;;;4.00;1.80;;;25.10;76.30;;;;;;5183314;22;20018;-69
2022/02/26 02:48:38;;;;;;;4.20;1.52;;;25.10;76.30;;;;;;5182638;22;20114;-69
2022/02/26 02:51:01;;;;;;;7.28;1.83;;;25.10;76.30;;;;;;5188947;22;20019;-71
2022/02/26 02:53:23;;;;;;;4.13;1.52;;;25.10;76.40;;;;;;5177906;22;20019;-71
2022/02/26 02:55:48;;;;;;;4.50;1.55;;;25.10;76.40;;;;;;5154807;22;20154;-69
2022/02/26 02:58:10;;;;;;;3.53;1.13;;;25.10;76.50;;;;;;5196239;22;20092;-71
2022/02/26 03:00:33;;;;;;;4.85;1.75;;;25.10;76.40;;;;;;5187963;22;20011;-70
2022/02/26 03:02:56;;;;;;;3.10;1.70;;;25.10;76.50;;;;;;5158558;22;20024;-69
2022/02/26 03:05:20;;;;;;;3.17;1.50;;;25.10;76.50;;;;;;5190186;22;20015;-68
2022/02/26 03:07:43;;;;;;;3.50;1.40;;;25.10;76.40;;;;;;5190830;22;20618;-68
2022/02/26 03:10:07;;;;;;;3.97;1.25;;;25.10;76.30;;;;;;5200822;22;20423;-70
2022/02/26 03:12:29;;;;;;;3.00;1.30;;;25.10;76.30;;;;;;5193071;22;20072;-68
2022/02/26 03:14:52;;;;;;;2.47;1.30;;;25.10;76.10;;;;;;5198381;22;20019;-69
2022/02/26 03:17:14;;;;;;;4.32;1.60;;;25.10;76.00;;;;;;5198655;22;20369;-70
2022/02/26 03:19:37;;;;;;;1.95;1.20;;;25.10;76.00;;;;;;5184613;22;20068;-69
2022/02/26 03:22:00;;;;;;;1.98;1.17;;;25.10;76.00;;;;;;5185854;22;20363;-70
2022/02/26 03:24:22;;;;;;;3.25;1.05;;;25.00;75.70;;;;;;5178943;22;20019;-68
2022/02/26 03:26:45;;;;;;;3.47;1.23;;;25.00;75.60;;;;;;5181022;22;20021;-69
2022/02/26 03:29:09;;;;;;;2.97;1.10;;;25.10;75.70;;;;;;5178346;22;20072;-70
2022/02/26 03:31:31;;;;;;;6.65;1.15;;;25.00;75.50;;;;;;5170893;22;20050;-69
2022/02/26 03:33:54;;;;;;;4.18;1.02;;;25.10;75.60;;;;;;5176068;22;20093;-69
2022/02/26 03:36:17;;;;;;;5.55;1.20;;;25.10;75.70;;;;;;5174168;22;20026;-70
2022/02/26 03:38:42;;;;;;;3.65;1.33;;;25.10;75.60;;;;;;5173322;22;20007;-69
2022/02/26 03:41:04;;;;;;;3.03;1.10;;;25.10;75.60;;;;;;5181627;22;20099;-69
2022/02/26 03:43:27;;;;;;;2.70;1.10;;;25.10;75.60;;;;;;5174165;22;20114;-69
2022/02/26 03:45:49;;;;;;;3.17;1.10;;;25.00;75.50;;;;;;5172325;22;20015;-70
2022/02/26 03:48:12;;;;;;;6.20;1.00;;;25.10;75.80;;;;;;5180603;22;20116;-70
2022/02/26 03:50:35;;;;;;;3.47;1.05;;;25.10;75.70;;;;;;5177656;22;20050;-72
2022/02/26 03:52:57;;;;;;;3.63;1.40;;;25.10;75.80;;;;;;5168913;22;20060;-70
2022/02/26 03:55:20;;;;;;;4.80;1.23;;;25.10;75.90;;;;;;5177281;22;20007;-70
2022/02/26 03:57:43;;;;;;;3.60;1.40;;;25.00;75.70;;;;;;5178446;22;20019;-70
2022/02/26 04:00:07;;;;;;;8.88;1.15;;;25.10;75.90;;;;;;5173016;22;20291;-70
2022/02/26 04:02:29;;;;;;;3.08;1.20;;;25.00;76.00;;;;;;5167792;22;20048;-71
2022/02/26 04:04:52;;;;;;;3.47;1.00;;;25.00;76.10;;;;;;5177654;22;20090;-70
2022/02/26 04:07:15;;;;;;;3.13;0.90;;;25.00;76.30;;;;;;5174365;22;20518;-70
2022/02/26 04:09:38;;;;;;;4.20;1.00;;;25.10;76.40;;;;;;5180293;22;20018;-69
2022/02/26 04:12:00;;;;;;;3.88;1.00;;;25.00;76.30;;;;;;5178949;22;20118;-69
2022/02/26 04:14:24;;;;;;;3.35;1.20;;;25.00;76.40;;;;;;5182342;22;20397;-68
2022/02/26 04:16:46;;;;;;;3.80;1.05;;;25.00;76.50;;;;;;5180767;22;20033;-66
2022/02/26 04:19:09;;;;;;;2.33;1.00;;;25.00;76.50;;;;;;5185402;22;20788;-71
2022/02/26 04:21:31;;;;;;;3.05;1.20;;;25.00;76.70;;;;;;5179840;22;20072;-68
2022/02/26 04:23:54;;;;;;;2.53;1.08;;;25.00;76.80;;;;;;5150461;22;20337;-71
2022/02/26 04:26:17;;;;;;;3.03;1.23;;;25.00;76.80;;;;;;5189667;22;20075;-72
2022/02/26 04:28:39;;;;;;;2.97;1.25;;;25.00;76.80;;;;;;5179933;22;20247;-70
2022/02/26 04:31:02;;;;;;;3.53;0.90;;;25.00;76.80;;;;;;5181185;22;20368;-70
2022/02/26 04:33:27;;;;;;;1.45;0.68;;;25.00;77.00;;;;;;5184792;22;20011;-69
2022/02/26 04:35:49;;;;;;;1.80;0.82;;;25.00;77.00;;;;;;5178567;22;20039;-71
2022/02/26 04:38:11;;;;;;;2.67;1.02;;;25.00;76.90;;;;;;5178362;22;20094;-71
2022/02/26 04:40:34;;;;;;;2.25;1.10;;;25.00;76.80;;;;;;5183358;22;20543;-71
2022/02/26 04:42:57;;;;;;;3.38;0.98;;;25.00;76.80;;;;;;5180026;22;20054;-70
2022/02/26 04:45:19;;;;;;;1.60;0.98;;;25.00;76.90;;;;;;5177681;22;20020;-70
2022/02/26 04:47:44;;;;;;;2.38;1.02;;;25.00;76.90;;;;;;5188000;22;20019;-68
2022/02/26 04:50:08;;;;;;;2.60;1.17;;;25.00;77.00;;;;;;5183224;22;20037;-72
2022/02/26 04:52:31;;;;;;;1.55;0.77;;;25.00;77.00;;;;;;5178959;22;20397;-72
2022/02/26 04:54:53;;;;;;;2.95;1.08;;;25.00;76.90;;;;;;5184180;22;20015;-71
2022/02/26 04:57:16;;;;;;;2.03;1.20;;;25.00;76.90;;;;;;5180235;22;20018;-71
2022/02/26 04:59:38;;;;;;;5.45;1.13;;;25.00;76.90;;;;;;5182846;22;20035;-69
2022/02/26 05:02:01;;;;;;;0.93;0.65;;;25.00;76.90;;;;;;5178921;22;20202;-71
2022/02/26 05:04:23;;;;;;;2.08;0.90;;;25.00;76.90;;;;;;5176526;22;20313;-71
2022/02/26 05:06:45;;;;;;;2.42;1.08;;;25.00;76.80;;;;;;5180352;22;20774;-71
2022/02/26 05:09:08;;;;;;;2.63;0.98;;;25.00;76.90;;;;;;5184293;22;21013;-72
2022/02/26 05:11:31;;;;;;;2.45;1.10;;;25.00;77.00;;;;;;5181040;22;20015;-72
2022/02/26 05:13:53;;;;;;;2.58;0.65;;;25.00;77.00;;;;;;5180943;22;20027;-71
2022/02/26 05:16:16;;;;;;;3.67;0.80;;;25.00;76.80;;;;;;5183531;22;20479;-71
2022/02/26 05:18:38;;;;;;;1.75;0.88;;;25.10;76.90;;;;;;5187064;22;20714;-71
2022/02/26 05:21:01;;;;;;;3.45;1.20;;;25.10;76.90;;;;;;5184681;22;20018;-71
2022/02/26 05:23:23;;;;;;;2.05;1.13;;;25.00;76.90;;;;;;5184766;22;20031;-73
2022/02/26 05:25:46;;;;;;;2.33;0.88;;;25.00;76.90;;;;;;5188891;22;20343;-73
2022/02/26 05:28:08;;;;;;;1.55;0.80;;;25.00;77.50;;;;;;5184559;22;20022;-71
2022/02/26 05:30:31;;;;;;;1.63;0.88;;;25.00;76.80;;;;;;5184338;22;20022;-73
2022/02/26 05:32:53;;;;;;;2.35;1.15;;;25.00;76.80;;;;;;5191855;22;20023;-73
2022/02/26 05:35:16;;;;;;;1.33;0.90;;;25.10;76.90;;;;;;5186713;22;20114;-73
2022/02/26 05:37:39;;;;;;;3.08;0.93;;;25.00;76.70;;;;;;5185830;22;20518;-72
2022/02/26 05:40:02;;;;;;;1.65;0.77;;;25.00;76.70;;;;;;5189547;22;20015;-73
2022/02/26 05:42:24;;;;;;;1.92;0.63;;;25.10;76.80;;;;;;5185666;22;20752;-71
2022/02/26 05:44:47;;;;;;;3.80;1.27;;;25.00;76.70;;;;;;5185061;22;20015;-72
2022/02/26 05:47:09;;;;;;;2.20;1.00;;;25.00;76.70;;;;;;5191488;22;20042;-71
2022/02/26 05:49:32;;;;;;;1.85;0.88;;;25.00;76.70;;;;;;5184458;22;20015;-72
2022/02/26 05:51:54;;;;;;;2.85;0.88;;;25.10;76.70;;;;;;5183818;22;20021;-71
2022/02/26 05:54:17;;;;;;;1.98;0.95;;;25.10;76.70;;;;;;5188015;22;20387;-72
2022/02/26 05:56:39;;;;;;;1.73;0.60;;;25.10;76.70;;;;;;5184477;22;20102;-72
2022/02/26 05:59:02;;;;;;;1.30;0.70;;;25.00;76.60;;;;;;5182936;22;20011;-72
2022/02/26 06:01:24;;;;;;;3.20;0.88;;;25.10;76.60;;;;;;5185624;22;20007;-71
2022/02/26 06:03:47;;;;;;;2.00;0.80;;;25.10;76.90;;;;;;5191211;22;20399;-73
2022/02/26 06:06:09;;;;;;;3.45;0.93;;;25.00;76.40;;;;;;5186222;22;20072;-72
2022/02/26 06:08:31;;;;;;;1.48;0.80;;;25.00;76.40;;;;;;5190151;22;20722;-71
2022/02/26 06:10:54;;;;;;;1.90;0.95;;;25.00;76.40;;;;;;5196334;22;20068;-74
2022/02/26 06:13:16;;;;;;;2.85;0.75;;;25.00;76.40;;;;;;5189832;22;20022;-72
2022/02/26 06:15:39;;;;;;;2.38;0.80;;;25.10;76.50;;;;;;5192095;22;20021;-74
2022/02/26 06:18:01;;;;;;;1.25;0.60;;;25.00;76.40;;;;;;5196191;22;20019;-72
2022/02/26 06:20:24;;;;;;;2.45;0.98;;;25.00;76.40;;;;;;5190494;22;20095;-74
2022/02/26 06:22:48;;;;;;;2.03;1.10;;;25.00;76.40;;;;;;5187078;22;20023;-73
2022/02/26 06:25:11;;;;;;;1.23;0.70;;;25.00;76.40;;;;;;5182510;22;20049;-71
2022/02/26 06:27:38;;;;;;;1.90;0.70;;;25.00;76.40;;;;;;5187673;22;20026;-71
2022/02/26 06:30:01;;;;;;;1.13;0.85;;;25.00;76.40;;;;;;5195327;22;20011;-72
2022/02/26 06:32:23;;;;;;;1.50;0.80;;;25.00;76.50;;;;;;5193892;22;20008;-71
2022/02/26 06:34:47;;;;;;;2.22;0.90;;;25.00;76.50;;;;;;5192161;22;20114;-71
2022/02/26 06:37:09;;;;;;;1.55;0.90;;;25.00;76.60;;;;;;5189219;22;20643;-70
2022/02/26 06:39:32;;;;;;;2.45;0.80;;;25.00;76.70;;;;;;5162226;22;20315;-72
2022/02/26 06:41:54;;;;;;;4.25;1.08;;;25.00;76.70;;;;;;5173119;22;20401;-73
2022/02/26 06:44:17;;;;;;;1.80;0.93;;;25.00;76.80;;;;;;5173832;22;20664;-71
2022/02/26 06:46:41;;;;;;;2.47;0.90;;;25.00;76.80;;;;;;5172318;22;20094;-70
2022/02/26 06:49:06;;;;;;;2.58;1.00;;;25.00;76.80;;;;;;5169262;22;20015;-72
2022/02/26 06:51:30;;;;;;;2.42;0.70;;;25.00;76.80;;;;;;5168122;22;20980;-72
2022/02/26 06:53:53;;;;;;;1.42;0.73;;;25.00;76.80;;;;;;5177663;22;20011;-72
2022/02/26 06:56:15;;;;;;;1.75;0.93;;;25.00;76.90;;;;;;5169725;22;20015;-71
2022/02/26 06:58:39;;;;;;;2.38;1.05;;;25.00;77.00;;;;;;5174411;22;20868;-75
2022/02/26 07:01:02;;;;;;;3.50;1.10;;;25.00;77.10;;;;;;5177423;22;20026;-74
2022/02/26 07:03:25;;;;;;;3.05;1.08;;;25.00;77.10;;;;;;5174101;22;20023;-73
2022/02/26 07:05:47;;;;;;;3.10;1.48;;;25.10;77.30;;;;;;5177033;22;20916;-74
2022/02/26 07:08:10;;;;;;;2.35;1.13;;;25.00;77.20;;;;;;5183933;22;20019;-71
2022/02/26 07:10:33;;;;;;;6.90;1.52;;;25.00;77.30;;;;;;5178011;22;20011;-72
2022/02/26 07:12:55;;;;;;;2.65;1.10;;;25.00;77.30;;;;;;5184603;22;20026;-71
2022/02/26 07:15:17;;;;;;;3.25;1.10;;;25.00;77.30;;;;;;5139272;23;20040;-71
2022/02/26 07:17:40;;;;;;;2.60;1.20;;;25.00;77.30;;;;;;5137073;23;20018;-65
2022/02/26 07:20:05;;;;;;;2.92;1.15;;;25.00;77.40;;;;;;5140665;23;20766;-65
2022/02/26 07:22:28;;;;;;;3.13;1.08;;;25.00;77.40;;;;;;5134316;23;20413;-65
2022/02/26 07:24:51;;;;;;;3.13;1.27;;;25.00;78.00;;;;;;5145096;23;20474;-65
2022/02/26 07:27:16;;;;;;;4.50;1.58;;;25.00;77.50;;;;;;5142701;23;20119;-65
2022/02/26 07:29:39;;;;;;;3.40;1.48;;;25.10;77.60;;;;;;5152684;22;20008;-65
2022/02/26 07:32:01;;;;;;;2.83;1.40;;;25.00;77.60;;;;;;5148750;22;20039;-65
2022/02/26 07:34:24;;;;;;;2.72;1.45;;;25.00;77.60;;;;;;5126223;22;20020;-65
2022/02/26 07:36:47;;;;;;;4.30;1.40;;;25.00;77.70;;;;;;5128758;22;20873;-65
2022/02/26 07:39:09;;;;;;;2.10;1.33;;;25.00;77.70;;;;;;5123870;23;20035;-65
2022/02/26 07:41:32;;;;;;;3.08;1.33;;;25.10;77.80;;;;;;5120146;23;20888;-65
2022/02/26 07:43:54;;;;;;;2.67;1.38;;;25.00;77.80;;;;;;5122726;23;20625;-65
2022/02/26 07:46:17;;;;;;;2.55;1.27;;;25.10;77.90;;;;;;5110661;23;20028;-65
2022/02/26 07:48:40;;;;;;;1.88;1.20;;;25.00;77.90;;;;;;5115821;22;20007;-66
2022/02/26 07:51:02;;;;;;;4.07;1.60;;;25.00;77.80;;;;;;5117375;23;20016;-64
2022/02/26 07:53:25;;;;;;;2.08;1.17;;;25.00;77.90;;;;;;5121476;22;20665;-65
2022/02/26 07:55:48;;;;;;;1.92;1.20;;;25.00;77.90;;;;;;5116092;23;20020;-66
2022/02/26 07:58:10;;;;;;;3.40;1.58;;;25.00;77.90;;;;;;5114892;23;20189;-66
2022/02/26 08:00:33;;;;;;;3.63;1.50;;;25.00;78.30;;;;;;5118709;23;20053;-68
2022/02/26 08:02:57;;;;;;;2.43;1.30;;;25.00;78.40;;;;;;5113275;23;20024;-69
2022/02/26 08:05:20;;;;;;;1.77;1.08;;;25.10;78.40;;;;;;5108214;23;20043;-66
2022/02/26 08:07:42;;;;;;;3.13;0.70;;;25.10;78.60;;;;;;5119958;23;20617;-65
2022/02/26 08:10:05;;;;;;;2.63;0.90;;;25.10;78.60;;;;;;5117479;23;20416;-72
2022/02/26 08:12:28;;;;;;;2.92;1.15;;;25.10;78.60;;;;;;5118183;23;20102;-66
2022/02/26 08:14:51;;;;;;;1.83;0.98;;;25.10;78.60;;;;;;5170500;22;20122;-64
2022/02/26 08:17:13;;;;;;;3.40;1.10;;;25.20;78.60;;;;;;5168083;22;20370;-66
2022/02/26 08:19:36;;;;;;;3.20;0.77;;;25.20;78.60;;;;;;5165755;22;20114;-68
2022/02/26 08:21:59;;;;;;;2.38;1.00;;;25.20;78.60;;;;;;5171261;22;20065;-68
2022/02/26 08:24:21;;;;;;;2.47;0.90;;;25.20;78.50;;;;;;5169070;22;20327;-79
2022/02/26 08:26:45;;;;;;;1.83;0.82;;;25.30;78.70;;;;;;5166621;22;20149;-71
2022/02/26 08:29:07;;;;;;;1.30;0.68;;;25.30;78.70;;;;;;5173594;22;20046;-78
2022/02/26 08:31:30;;;;;;;1.02;0.60;;;25.30;78.70;;;;;;5164087;22;20019;-76
2022/02/26 08:33:52;;;;;;;1.55;0.80;;;25.30;78.60;;;;;;5162968;22;20138;-72
2022/02/26 08:36:15;;;;;;;1.95;1.10;;;25.30;78.50;;;;;;5168145;22;20014;-80
2022/02/26 08:38:37;;;;;;;3.08;0.90;;;25.40;78.50;;;;;;5162781;22;20414;-73
2022/02/26 08:41:00;;;;;;;1.15;0.73;;;25.40;78.50;;;;;;5162760;22;20015;-75
2022/02/26 08:43:24;;;;;;;2.00;0.60;;;25.40;78.50;;;;;;5170435;22;20208;-85
2022/02/26 08:45:45;;;;;;;;;;;25.40;78.40;;;;;;5164170;22;20060;-77
2022/02/26 08:48:08;;;;;;;1.45;0.68;;;25.40;78.20;;;;;;5163305;22;19906;-74
2022/02/26 08:50:30;;;;;;;2.38;0.90;;;25.50;78.30;;;;;;5171557;22;20092;-67
2022/02/26 08:52:53;;;;;;;3.65;1.05;;;25.50;78.30;;;;;;5167757;22;20049;-73
2022/02/26 08:55:16;;;;;;;2.30;1.13;;;25.50;78.00;;;;;;5170906;22;20019;-74
2022/02/26 08:57:39;;;;;;;4.22;0.90;;;25.50;78.00;;;;;;5174323;22;20022;-76
2022/02/26 09:00:03;;;;;;;7.03;1.05;;;25.60;78.00;;;;;;5171641;22;20093;-79
2022/02/26 09:02:25;;;;;;;;;;;25.60;77.90;;;;;;5164643;22;20753;-73
2022/02/26 09:04:48;;;;;;;0.75;0.63;;;25.60;77.80;;;;;;5172959;22;20659;-69
2022/02/26 09:07:11;;;;;;;2.22;0.95;;;25.60;77.80;;;;;;5139689;22;20046;-75
2022/02/26 09:09:34;;;;;;;2.78;0.70;;;25.70;77.80;;;;;;5167719;22;20023;-72
2022/02/26 09:11:57;;;;;;;2.03;0.55;;;25.70;77.80;;;;;;5173946;22;20007;-70
2022/02/26 09:14:21;;;;;;;1.90;0.60;;;25.70;77.80;;;;;;5169897;22;21111;-74
2022/02/26 09:16:43;;;;;;;1.17;0.50;;;25.70;77.70;;;;;;5167214;22;20011;-73
2022/02/26 09:19:06;;;;;;;2.28;0.88;;;25.70;77.70;;;;;;5172961;22;20069;-74
2022/02/26 09:21:29;;;;;;;2.42;0.82;;;25.70;77.60;;;;;;5166323;22;20011;-76
2022/02/26 09:23:51;;;;;;;1.20;0.70;;;25.80;77.80;;;;;;5168226;22;20023;-73
2022/02/26 09:26:14;;;;;;;2.55;0.90;;;25.80;77.80;;;;;;5175932;22;20015;-70
2022/02/26 09:28:41;;;;;;;2.78;1.00;;;25.80;77.70;;;;;;5169329;22;20026;-73
2022/02/26 09:31:04;;;;;;;2.30;1.20;;;25.80;78.20;;;;;;5173480;22;20340;-78
2022/02/26 09:33:29;;;;;;;1.40;0.90;;;25.80;77.70;;;;;;5175622;22;20089;-74
2022/02/26 09:35:51;;;;;;;2.13;1.00;;;25.80;77.70;;;;;;5170617;22;20012;-68
2022/02/26 09:38:14;;;;;;;2.83;1.10;;;25.80;77.70;;;;;;5167338;22;20019;-72
2022/02/26 09:40:38;;;;;;;3.42;0.90;;;25.90;77.70;;;;;;5176190;22;20017;-71
2022/02/26 09:43:01;;;;;;;2.28;0.80;;;25.90;77.60;;;;;;5167218;22;20197;-76
2022/02/26 09:45:23;;;;;;;2.30;0.88;;;25.90;77.60;;;;;;5168608;22;20620;-78
2022/02/26 09:47:46;;;;;;;2.65;1.10;;;25.90;77.60;;;;;;5176481;22;20025;-79
2022/02/26 09:50:09;;;;;;;1.75;1.00;;;25.90;77.60;;;;;;5170768;22;20018;-72
2022/02/26 09:52:37;;;;;;;1.33;1.00;;;25.90;77.50;;;;;;5167282;22;20038;-70
2022/02/26 09:54:59;;;;;;;3.35;1.10;;;26.00;77.40;;;;;;5171765;22;20329;-74
2022/02/26 09:57:25;;;;;;;2.58;0.98;;;25.90;77.40;;;;;;5167331;22;20027;-69
2022/02/26 09:59:48;;;;;;;2.05;0.90;;;25.90;77.30;;;;;;5175724;22;20011;-71
2022/02/26 10:02:11;;;;;;;1.00;0.80;;;26.00;77.40;;;;;;5169965;22;20470;-76
2022/02/26 10:04:36;;;;;;;3.55;0.88;;;26.00;77.40;;;;;;5167099;22;20030;-76
2022/02/26 10:07:09;;;;;;;1.27;0.60;;;26.00;77.10;;;;;;5178104;22;20026;-72
2022/02/26 10:09:38;;;;;;;2.53;0.93;;;26.00;77.10;;;;;;5177137;22;20431;-76
2022/02/26 10:12:01;;;;;;;1.85;0.70;;;26.00;77.60;;;;;;5180384;22;20011;-71
2022/02/26 10:14:23;;;;;;;1.75;0.90;;;26.00;76.90;;;;;;5180189;22;20062;-75
2022/02/26 10:16:52;;;;;;;1.20;0.60;;;26.00;76.80;;;;;;5181862;22;20987;-79
2022/02/26 10:19:29;;;;;;;1.30;0.60;;;26.00;76.70;;;;;;5180057;22;20108;-74
2022/02/26 10:21:54;;;;;;;2.08;0.85;;;26.00;76.80;;;;;;5182339;22;20098;-73
2022/02/26 10:24:17;;;;;;;1.67;1.00;;;26.00;76.80;;;;;;5179458;22;20027;-75
2022/02/26 10:26:45;;;;;;;1.95;0.60;;;26.00;76.80;;;;;;5179083;22;20011;-68
2022/02/26 10:29:14;;;;;;;1.80;0.80;;;26.00;76.70;;;;;;5182844;22;20015;-67
2022/02/26 10:31:45;;;;;;;0.88;0.68;;;26.00;76.80;;;;;;5183660;22;20892;-74
2022/02/26 10:34:33;;;;;;;1.83;0.80;;;26.00;76.70;;;;;;5181020;22;20098;-68
2022/02/26 10:37:09;;;;;;;4.20;0.80;;;26.00;76.60;;;;;;5182844;22;20019;-70
2022/02/26 10:39:44;;;;;;;2.95;0.90;;;26.00;76.60;;;;;;5185316;22;20120;-71
2022/02/26 10:42:19;;;;;;;2.45;0.88;;;26.00;76.60;;;;;;5184540;22;20011;-69
2022/02/26 10:44:41;;;;;;;0.75;0.70;;;26.00;76.70;;;;;;5181863;22;20019;-74
2022/02/26 10:47:15;;;;;;;1.70;0.80;;;26.10;76.90;;;;;;5187436;22;20786;-74
2022/02/26 10:49:46;;;;;;;2.90;1.00;;;26.00;76.80;;;;;;5183214;22;20019;-67
2022/02/26 10:52:09;;;;;;;1.60;0.93;;;26.00;76.30;;;;;;5186419;22;20104;-69
2022/02/26 10:54:32;;;;;;;2.10;1.02;;;26.10;76.30;;;;;;5179961;22;20016;-68
2022/02/26 10:57:03;;;;;;;7.32;1.13;;;26.10;76.40;;;;;;5182176;22;20606;-68
2022/02/26 10:59:42;;;;;;;4.22;1.20;;;26.10;76.30;;;;;;5181361;22;20134;-70
2022/02/26 11:02:22;;;;;;;2.60;1.00;;;26.10;76.20;;;;;;5184174;22;20118;-70
2022/02/26 11:04:45;;;;;;;8.75;1.20;;;26.10;76.20;;;;;;5185995;22;20552;-71
2022/02/26 11:07:10;;;;;;;2.70;0.50;;;26.10;76.20;;;;;;5180746;22;20015;-67
2022/02/26 11:09:38;;;;;;;3.20;0.90;;;26.10;76.20;;;;;;5181915;22;20023;-66
2022/02/26 11:12:01;;;;;;;1.40;0.70;;;26.10;76.00;;;;;;5184383;22;20083;-67
2022/02/26 11:14:26;;;;;;;1.05;0.73;;;26.10;76.00;;;;;;5180343;22;20084;-72
2022/02/26 11:16:51;;;;;;;1.15;0.63;;;26.10;75.90;;;;;;5186478;22;20443;-74
2022/02/26 11:19:16;;;;;;;2.03;0.90;;;26.10;75.90;;;;;;5179113;22;20023;-70
2022/02/26 11:21:39;;;;;;;1.17;0.60;;;26.10;75.90;;;;;;5182084;22;20030;-72
2022/02/26 11:24:04;;;;;;;2.75;0.93;;;26.10;76.00;;;;;;5189947;22;20130;-70
2022/02/26 11:26:27;;;;;;;1.73;0.70;;;26.10;75.90;;;;;;5189616;22;20097;-70
2022/02/26 11:28:52;;;;;;;1.95;0.85;;;26.20;75.90;;;;;;5152163;22;20541;-78
2022/02/26 11:31:21;;;;;;;4.38;1.42;;;26.10;75.80;;;;;;5156825;22;20039;-74
2022/02/26 11:33:45;;;;;;;1.73;0.90;;;26.20;75.50;;;;;;5188440;22;20022;-73
2022/02/26 11:36:08;;;;;;;2.97;0.90;;;26.10;75.10;;;;;;5195582;22;20019;-76
2022/02/26 11:38:35;;;;;;;3.15;1.10;;;26.10;75.00;;;;;;5207402;22;20059;-73
2022/02/26 11:41:23;;;;;;;2.40;0.90;;;26.10;74.90;;;;;;5201484;22;20508;-72
2022/02/26 11:43:50;;;;;;;6.40;1.25;;;26.10;74.90;;;;;;5197110;22;20019;-69
2022/02/26 11:46:19;;;;;;;7.63;1.50;;;26.00;74.90;;;;;;5191902;22;20086;-67
2022/02/26 11:48:41;;;;;;;6.25;1.50;;;26.10;75.30;;;;;;5186855;22;20011;-67
2022/02/26 11:51:12;;;;;;;7.15;1.65;;;26.10;75.50;;;;;;5182310;22;20015;-69
2022/02/26 11:53:48;;;;;;;4.40;1.10;;;26.10;75.70;;;;;;5183564;22;20742;-68
2022/02/26 11:56:11;;;;;;;4.22;1.00;;;26.00;75.80;;;;;;5175865;22;20011;-67
2022/02/26 11:58:34;;;;;;;3.17;1.10;;;26.10;75.90;;;;;;5182214;22;20055;-67
2022/02/26 12:01:04;;;;;;;4.60;1.65;;;26.10;76.00;;;;;;5183203;22;20015;-66
2022/02/26 12:03:42;;;;;;;3.28;1.00;;;26.10;76.00;;;;;;5178104;22;20566;-68
2022/02/26 12:06:13;;;;;;;4.93;0.98;;;26.10;76.00;;;;;;5178762;22;20455;-69
2022/02/26 12:08:41;;;;;;;2.88;0.80;;;26.10;76.00;;;;;;5184939;22;20748;-69
2022/02/26 12:11:06;;;;;;;3.92;0.80;;;26.10;76.00;;;;;;5176067;22;20015;-67
2022/02/26 12:13:38;;;;;;;7.35;1.08;;;26.10;76.00;;;;;;5184961;22;20035;-69
2022/02/26 12:16:22;;;;;;;6.78;1.00;;;26.10;76.00;;;;;;5177114;22;20007;-68
2022/02/26 12:18:48;;;;;;;4.65;0.82;;;26.10;76.00;;;;;;5147344;22;20023;-67
2022/02/26 12:21:20;;;;;;;2.33;1.05;;;26.10;76.00;;;;;;5186338;22;20346;-67
2022/02/26 12:23:45;;;;;;;2.75;0.75;;;26.10;76.00;;;;;;5176492;22;20027;-68
2022/02/26 12:26:10;;;;;;;2.40;1.13;;;26.10;75.90;;;;;;5185830;22;20064;-65
2022/02/26 12:28:33;;;;;;;2.83;1.17;;;26.10;75.90;;;;;;5176007;22;20018;-68
2022/02/26 12:31:02;;;;;;;1.27;0.80;;;26.10;75.90;;;;;;5175899;22;20038;-67
2022/02/26 12:33:25;;;;;;;1.88;0.85;;;26.10;75.90;;;;;;5183737;22;20019;-68
2022/02/26 12:35:47;;;;;;;1.77;0.70;;;26.10;75.80;;;;;;5179059;22;20015;-73